Terminal Aerodrome Forecast
Issued by NWS Mt. Holly, NJ

Home | Current Version | Previous Version | Text Only | Print | Product List | Glossary On
Versions: 1 2 3 4 5 6 7 8 9 10 11 12 13 14 15 16 17 18 19 20 21
000
FTUS41 KPHI 251727
TAFACY
TAF
KACY 251727Z 2518/2618 06018G28KT 1SM RA BR OVC005
     FM260100 06012G19KT 3SM -SHRA BR BKN008 OVC010
     FM260300 04010KT 3SM BR OVC005
     FM260600 02006KT 1SM BR OVC003
     FM261600 04008KT 3SM BR OVC008=

USA.gov is the U.S. government's official web portal to all federal, state and local government web resources and services.